Map

Track Data

SID SEASON NUMBER BASIN SUBBASIN NAME ISO_TIME NATURE LAT LON WMO_WIND WMO_PRES WMO_AGENCY TRACK_TYPE DIST2LAND LANDFALL IFLAG USA_AGENCY USA_ATCF_ID USA_LAT USA_LON USA_RECORD USA_STATUS USA_WIND USA_PRES USA_SSHS USA_R34_NE USA_R34_SE USA_R34_SW USA_R34_NW USA_R50_NE USA_R50_SE USA_R50_SW USA_R50_NW USA_R64_NE USA_R64_SE USA_R64_SW USA_R64_NW USA_POCI USA_ROCI USA_RMW USA_EYE TOKYO_LAT TOKYO_LON TOKYO_GRADE TOKYO_WIND TOKYO_PRES TOKYO_R50_DIR TOKYO_R50_LONG TOKYO_R50_SHORT TOKYO_R30_DIR TOKYO_R30_LONG TOKYO_R30_SHORT TOKYO_LAND CMA_LAT CMA_LON CMA_CAT CMA_WIND CMA_PRES HKO_LAT HKO_LON HKO_CAT HKO_WIND HKO_PRES NEWDELHI_LAT NEWDELHI_LON NEWDELHI_GRADE NEWDELHI_WIND NEWDELHI_PRES NEWDELHI_CI NEWDELHI_DP NEWDELHI_POCI REUNION_LAT REUNION_LON REUNION_TYPE REUNION_WIND REUNION_PRES REUNION_TNUM REUNION_CI REUNION_RMW REUNION_R34_NE REUNION_R34_SE REUNION_R34_SW REUNION_R34_NW REUNION_R50_NE REUNION_R50_SE REUNION_R50_SW REUNION_R50_NW REUNION_R64_NE REUNION_R64_SE REUNION_R64_SW REUNION_R64_NW BOM_LAT BOM_LON BOM_TYPE BOM_WIND BOM_PRES BOM_TNUM BOM_CI BOM_RMW BOM_R34_NE BOM_R34_SE BOM_R34_SW BOM_R34_NW BOM_R50_NE BOM_R50_SE BOM_R50_SW BOM_R50_NW BOM_R64_NE BOM_R64_SE BOM_R64_SW BOM_R64_NW BOM_ROCI BOM_POCI BOM_EYE BOM_POS_METHOD BOM_PRES_METHOD NADI_LAT NADI_LON NADI_CAT NADI_WIND NADI_PRES WELLINGTON_LAT WELLINGTON_LON WELLINGTON_WIND WELLINGTON_PRES DS824_LAT DS824_LON DS824_STAGE DS824_WIND DS824_PRES TD9636_LAT TD9636_LON TD9636_STAGE TD9636_WIND TD9636_PRES TD9635_LAT TD9635_LON TD9635_WIND TD9635_PRES TD9635_ROCI NEUMANN_LAT NEUMANN_LON NEUMANN_CLASS NEUMANN_WIND NEUMANN_PRES MLC_LAT MLC_LON MLC_CLASS MLC_WIND MLC_PRES USA_GUST BOM_GUST BOM_GUST_PER REUNION_GUST REUNION_GUST_PER USA_SEAHGT USA_SEARAD_NE USA_SEARAD_SE USA_SEARAD_SW USA_SEARAD_NW STORM_SPEED STORM_DIR
1974239N27291 1974 93 NA NA BECKY 1974-08-26 12:00:00 TS 27.0000 -69.0000 25 hurdat_atl main 764 764 O_____________ hurdat_atl AL091974 27.0000 -69.0000 TD 25 -1 5 323
1974239N27291 1974 93 NA NA BECKY 1974-08-26 15:00:00 TS 27.1900 -69.1599 main 773 773 P_____________ AL091974 27.1900 -69.1599 TD 27 -1 5 326
1974239N27291 1974 93 NA NA BECKY 1974-08-26 18:00:00 TS 27.4000 -69.3000 30 hurdat_atl main 787 787 O_____________ hurdat_atl AL091974 27.4000 -69.3000 TD 30 -1 5 335
1974239N27291 1974 93 NA NA BECKY 1974-08-26 21:00:00 TS 27.6550 -69.4076 main 812 812 P_____________ AL091974 27.6550 -69.4076 TD 30 -1 6 344
1974239N27291 1974 93 NA NA BECKY 1974-08-27 00:00:00 TS 28.0000 -69.5000 30 hurdat_atl main 837 837 O_____________ hurdat_atl AL091974 28.0000 -69.5000 TD 30 -1 8 348
1974239N27291 1974 93 NA NA BECKY 1974-08-27 03:00:00 TS 28.4700 -69.6074 main 884 884 P_____________ AL091974 28.4700 -69.6074 TD 30 -1 10 350
1974239N27291 1974 93 NA NA BECKY 1974-08-27 06:00:00 TS 29.0000 -69.7000 30 hurdat_atl main 902 855 O_____________ hurdat_atl AL091974 29.0000 -69.7000 TD 30 -1 11 352
1974239N27291 1974 93 NA NA BECKY 1974-08-27 09:00:00 TS 29.5150 -69.7650 main 855 817 P_____________ AL091974 29.5150 -69.7650 TD 30 -1 10 355
1974239N27291 1974 93 NA NA BECKY 1974-08-27 12:00:00 TS 30.0000 -69.8000 30 hurdat_atl main 817 787 O_____________ hurdat_atl AL091974 30.0000 -69.8000 TD 30 -1 9 357
1974239N27291 1974 93 NA NA BECKY 1974-08-27 15:00:00 TS 30.4225 -69.8299 main 787 758 P_____________ AL091974 30.4225 -69.8299 TD 30 -1 8 1
1974239N27291 1974 93 NA NA BECKY 1974-08-27 18:00:00 TS 30.8000 -69.8000 30 hurdat_atl main 758 745 O_____________ hurdat_atl AL091974 30.8000 -69.8000 TD 30 -1 8 9
1974239N27291 1974 93 NA NA BECKY 1974-08-27 21:00:00 TS 31.1650 -69.6875 main 739 732 P_____________ AL091974 31.1650 -69.6875 TD 30 -1 7 20
1974239N27291 1974 93 NA NA BECKY 1974-08-28 00:00:00 TS 31.5000 -69.5000 30 1010 hurdat_atl main 732 724 O_____________ hurdat_atl AL091974 31.5000 -69.5000 TD 30 1010 -1 7 29
1974239N27291 1974 93 NA NA BECKY 1974-08-28 03:00:00 TS 31.8075 -69.2649 main 724 724 P_____________ AL091974 31.8075 -69.2649 TD 32 1008 -1 7 35
1974239N27291 1974 93 NA NA BECKY 1974-08-28 06:00:00 TS 32.1000 -69.0000 35 hurdat_atl main 726 721 I_____________ hurdat_atl AL091974 32.1000 -69.0000 TS 35 1006 0 7 37
1974239N27291 1974 93 NA NA BECKY 1974-08-28 09:00:00 TS 32.3699 -68.7644 main 722 722 P_____________ AL091974 32.3699 -68.7644 TS 42 1004 0 7 35
1974239N27291 1974 93 NA NA BECKY 1974-08-28 12:00:00 TS 32.7000 -68.5000 50 1003 hurdat_atl main 728 726 O_____________ hurdat_atl AL091974 32.7000 -68.5000 TS 50 1003 0 10 32
1974239N27291 1974 93 NA NA BECKY 1974-08-28 15:00:00 TS 33.1851 -68.1579 main 727 727 P_____________ AL091974 33.1851 -68.1579 TS 57 1001 0 12 30
1974239N27291 1974 93 NA NA BECKY 1974-08-28 18:00:00 TS 33.7000 -67.8000 65 1000 hurdat_atl main 739 735 O_____________ hurdat_atl AL091974 33.7000 -67.8000 HU 65 1000 1 11 29
1974239N27291 1974 93 NA NA BECKY 1974-08-28 21:00:00 TS 34.1145 -67.5289 main 751 748 P_____________ AL091974 34.1145 -67.5289 HU 65 996 1 9 32
1974239N27291 1974 93 NA NA BECKY 1974-08-29 00:00:00 TS 34.5000 -67.2000 65 992 hurdat_atl main 766 766 O_____________ hurdat_atl AL091974 34.5000 -67.2000 HU 65 992 1 11 41
1974239N27291 1974 93 NA NA BECKY 1974-08-29 03:00:00 TS 34.9077 -66.6876 main 802 784 P_____________ AL091974 34.9077 -66.6876 HU 72 990 1 12 48
1974239N27291 1974 93 NA NA BECKY 1974-08-29 06:00:00 TS 35.3000 -66.1000 80 hurdat_atl main 788 768 I_____________ hurdat_atl AL091974 35.3000 -66.1000 HU 80 989 1 12 51
1974239N27291 1974 93 NA NA BECKY 1974-08-29 09:00:00 TS 35.6722 -65.5497 main 772 762 P_____________ AL091974 35.6722 -65.5497 HU 82 988 1 11 52
1974239N27291 1974 93 NA NA BECKY 1974-08-29 12:00:00 TS 36.0000 -65.0000 85 987 hurdat_atl main 767 762 O_____________ hurdat_atl AL091974 36.0000 -65.0000 HU 85 987 2 11 56
1974239N27291 1974 93 NA NA BECKY 1974-08-29 15:00:00 TS 36.2647 -64.4493 main 770 770 P_____________ AL091974 36.2647 -64.4493 HU 87 2 10 61
1974239N27291 1974 93 NA NA BECKY 1974-08-29 18:00:00 TS 36.5000 -63.9000 90 hurdat_atl main 780 762 O_____________ hurdat_atl AL091974 36.5000 -63.9000 HU 90 2 10 61
1974239N27291 1974 93 NA NA BECKY 1974-08-29 21:00:00 TS 36.7648 -63.3425 main 764 751 P_____________ AL091974 36.7648 -63.3425 HU 92 2 10 60
1974239N27291 1974 93 NA NA BECKY 1974-08-30 00:00:00 TS 37.0000 -62.8000 95 hurdat_atl main 753 747 O_____________ hurdat_atl AL091974 37.0000 -62.8000 HU 95 2 9 66
1974239N27291 1974 93 NA NA BECKY 1974-08-30 03:00:00 TS 37.1349 -62.2765 main 755 747 P_____________ AL091974 37.1349 -62.2765 HU 97 3 9 69
1974239N27291 1974 93 NA NA BECKY 1974-08-30 06:00:00 TS 37.3000 -61.8000 100 hurdat_atl main 750 730 O_____________ hurdat_atl AL091974 37.3000 -61.8000 HU 100 3 9 55
1974239N27291 1974 93 NA NA BECKY 1974-08-30 09:00:00 TS 37.6347 -61.3852 main 733 710 P_____________ AL091974 37.6347 -61.3852 HU 100 3 9 42
1974239N27291 1974 93 NA NA BECKY 1974-08-30 12:00:00 TS 38.0000 -61.0000 100 977 hurdat_atl main 710 699 O_____________ hurdat_atl AL091974 38.0000 -61.0000 HU 100 977 3 9 45
1974239N27291 1974 93 NA NA BECKY 1974-08-30 15:00:00 TS 38.2422 -60.6139 main 708 699 P_____________ AL091974 38.2422 -60.6139 HU 100 3 8 51
1974239N27291 1974 93 NA NA BECKY 1974-08-30 18:00:00 TS 38.5000 -60.2000 100 hurdat_atl main 700 685 O_____________ hurdat_atl AL091974 38.5000 -60.2000 HU 100 3 9 47
1974239N27291 1974 93 NA NA BECKY 1974-08-30 21:00:00 TS 38.8848 -59.7300 main 690 665 P_____________ AL091974 38.8848 -59.7300 HU 100 3 11 44
1974239N27291 1974 93 NA NA BECKY 1974-08-31 00:00:00 TS 39.3000 -59.2000 100 hurdat_atl main 669 642 O_____________ hurdat_atl AL091974 39.3000 -59.2000 HU 100 3 11 46
1974239N27291 1974 93 NA NA BECKY 1974-08-31 03:00:00 TS 39.6863 -58.6747 main 642 627 P_____________ AL091974 39.6863 -58.6747 HU 100 3 12 53
1974239N27291 1974 93 NA NA BECKY 1974-08-31 06:00:00 TS 40.0000 -58.0000 100 hurdat_atl main 631 627 O_____________ hurdat_atl AL091974 40.0000 -58.0000 HU 100 3 13 70
1974239N27291 1974 93 NA NA BECKY 1974-08-31 09:00:00 TS 40.1514 -57.0206 main 648 648 P_____________ AL091974 40.1514 -57.0206 HU 100 3 16 79
1974239N27291 1974 93 NA NA BECKY 1974-08-31 12:00:00 TS 40.3000 -56.0000 100 hurdat_atl main 684 680 O_____________ hurdat_atl AL091974 40.3000 -56.0000 HU 100 3 14 71
1974239N27291 1974 93 NA NA BECKY 1974-08-31 15:00:00 TS 40.6183 -55.2345 main 679 626 P_____________ AL091974 40.6183 -55.2345 HU 97 3 13 58
1974239N27291 1974 93 NA NA BECKY 1974-08-31 18:00:00 TS 41.0000 -54.5000 95 hurdat_atl main 626 578 O_____________ hurdat_atl AL091974 41.0000 -54.5000 HU 95 2 14 58
1974239N27291 1974 93 NA NA BECKY 1974-08-31 21:00:00 TS 41.3713 -53.6599 main 578 545 P_____________ AL091974 41.3713 -53.6599 HU 92 2 15 63
1974239N27291 1974 93 NA NA BECKY 1974-09-01 00:00:00 TS 41.7000 -52.7000 90 hurdat_atl main 546 532 O_____________ hurdat_atl AL091974 41.7000 -52.7000 HU 90 2 16 71
1974239N27291 1974 93 NA NA BECKY 1974-09-01 03:00:00 TS 41.9067 -51.6074 main 537 532 P_____________ AL091974 41.9067 -51.6074 HU 87 2 18 77
1974239N27291 1974 93 NA NA BECKY 1974-09-01 06:00:00 TS 42.1000 -50.4000 85 hurdat_atl main 547 547 O_____________ hurdat_atl AL091974 42.1000 -50.4000 HU 85 2 19 75
1974239N27291 1974 93 NA NA BECKY 1974-09-01 09:00:00 TS 42.4048 -49.1757 main 563 563 P_____________ AL091974 42.4048 -49.1757 HU 82 1 20 73
1974239N27291 1974 93 NA NA BECKY 1974-09-01 12:00:00 TS 42.7000 -47.8000 80 hurdat_atl main 607 607 O_____________ hurdat_atl AL091974 42.7000 -47.8000 HU 80 1 22 77
1974239N27291 1974 93 NA NA BECKY 1974-09-01 15:00:00 TS 42.8858 -46.2314 main 686 686 P_____________ AL091974 42.8858 -46.2314 HU 75 1 24 83
1974239N27291 1974 93 NA NA BECKY 1974-09-01 18:00:00 TS 43.0000 -44.5000 70 hurdat_atl main 788 788 O_____________ hurdat_atl AL091974 43.0000 -44.5000 HU 70 1 25 86
1974239N27291 1974 93 NA NA BECKY 1974-09-01 21:00:00 TS 43.0739 -42.7619 main 898 898 P_____________ AL091974 43.0739 -42.7619 HU 65 1 27 88
1974239N27291 1974 93 NA NA BECKY 1974-09-02 00:00:00 TS 43.1000 -40.8000 60 hurdat_atl main 1039 1039 O_____________ hurdat_atl AL091974 43.1000 -40.8000 TS 60 0 31 90
1974239N27291 1974 93 NA NA BECKY 1974-09-02 03:00:00 TS 43.0785 -38.4989 main 1200 1200 P_____________ AL091974 43.0785 -38.4989 TS 50 0 35 92
1974239N27291 1974 93 NA NA BECKY 1974-09-02 06:00:00 TS 43.0000 -36.0000 40 hurdat_atl main 1384 O_____________ hurdat_atl AL091974 43.0000 -36.0000 TS 40 0 36 92

About IBTrACS Database

This database is a web-friendly format of International Best Track Archive for Climate Stewardship (IBTrACS), a global best track data archive curated by NOAA dating back to 1842.

Updated: 2021-10-19